Latest Weather Observations for Territory Grape Farm

IDD60801

Issued at 5:21 pm CST Monday 23 May 2022 (issued every 10 minutes, with the page automatically refreshed every 10 minutes)

About weather observations | Map of weather stations | Latest weather observations for NT | Other Formats
Station Details ID: 015643 Name: TERRITORY GRAPE FARM Lat: -22.45 Lon: 133.64 Height: 565.6 m
Data from the previous 72 hours. | See also: Recent months at Territory Grape Farm
Date/Time
CST
Temp
°C
App
Temp
°C
Dew
Point
°C
Rel
Hum
%
Delta-T
°C
Wind Press
QNH
hPa
Press
MSL
hPa
Rain since
9am
mm
Dir  Spd
km/h
Gust
km/h
Spd
kts
Gust
kts
23/05:00pm 25.9 22.3 4.9 26 10.9 SE 13 22 7 12 1017.0 1015.3 0.0
23/04:30pm 27.1 23.6 5.4 25 11.5 ESE 13 22 7 12 1016.9 1015.2 0.0
23/04:00pm 26.3 23.0 4.7 25 11.2 ESE 11 20 6 11 1017.1 1015.4 0.0
23/03:30pm 26.5 22.7 3.7 23 11.6 SE 13 24 7 13 1017.1 1015.4 0.0
23/03:00pm 26.9 24.0 4.6 24 11.6 E 9 20 5 11 1017.1 1015.4 0.0
23/02:30pm 26.3 22.9 4.1 24 11.4 ESE 11 19 6 10 1017.6 1016.0 0.0
23/02:00pm 26.2 21.9 5.2 26 11.0 SE 17 24 9 13 1017.6 1016.0 0.0
23/01:30pm 25.9 22.7 4.9 26 10.9 E 11 19 6 10 1018.3 1016.6 0.0
23/01:00pm 25.3 21.3 5.0 27 10.5 E 15 22 8 12 1018.6 1016.9 0.0
23/12:30pm 24.8 21.3 5.6 29 10.0 ESE 13 22 7 12 1019.1 1017.5 0.0
23/12:00pm 24.3 21.1 7.0 33 9.2 E 13 20 7 11 1019.5 1017.9 0.0
23/11:30am 23.9 21.0 6.7 33 9.1 E 11 20 6 11 1020.4 1018.7 0.0
23/11:00am 23.1 20.2 8.0 38 8.2 ENE 13 20 7 11 1020.9 1019.3 0.0
23/10:30am 22.4 19.3 8.9 42 7.4 E 15 22 8 12 1021.4 1019.8 0.0
23/10:00am 21.5 18.2 9.4 46 6.7 E 17 20 9 11 1021.4 1019.8 0.0
23/09:30am 19.9 16.3 10.0 53 5.4 E 19 28 10 15 1021.2 1019.6 0.0
23/09:00am 17.8 14.7 10.2 61 4.1 ESE 17 20 9 11 1021.2 1019.6 0.0
23/08:30am 15.5 13.7 9.6 68 3.1 ESE 9 17 5 9 1021.0 1019.4 0.0
23/08:00am 12.2 10.3 6.7 69 2.7 ESE 6 7 3 4 1020.6 1018.9 0.0
23/07:30am 10.3 8.5 5.5 72 2.3 ESE 4 6 2 3 1020.3 1018.6 0.0
23/07:00am 9.5 6.7 5.3 75 2.0 ESE 9 9 5 5 1019.9 1018.3 0.0
23/06:30am 9.5 6.7 5.1 74 2.0 ESE 9 11 5 6 1019.4 1017.8 0.0
23/06:00am 9.0 5.6 4.0 71 2.3 ESE 11 11 6 6 1019.0 1017.3 0.0
23/05:30am 9.7 6.9 3.2 64 2.9 SE 7 7 4 4 1018.9 1017.2 0.0
23/05:00am 10.8 8.2 4.3 64 3.0 SSE 7 7 4 4 1019.0 1017.3 0.0
23/04:30am 10.9 8.3 4.1 63 3.1 SSE 7 9 4 5 1018.9 1017.2 0.0
23/04:00am 10.9 8.4 3.7 61 3.3 SSE 6 7 3 4 1019.0 1017.3 0.0
23/03:30am 10.9 8.4 3.7 61 3.3 SE 6 7 3 4 1018.9 1017.2 0.0
23/03:00am 11.0 8.4 3.3 59 3.5 SE 6 7 3 4 1019.1 1017.5 0.0
23/02:30am 10.9 8.0 2.5 56 3.7 SE 7 7 4 4 1018.9 1017.2 0.0
23/02:00am 10.9 8.1 2.0 54 3.9 SSE 6 6 3 3 1019.3 1017.7 0.0
23/01:30am 11.5 8.5 2.3 53 4.1 SSE 7 9 4 5 1019.3 1017.7 0.0
23/01:00am 11.6 8.2 1.8 51 4.3 SSE 9 9 5 5 1019.4 1017.8 0.0
23/12:30am 12.0 8.9 1.1 47 4.7 SSE 7 11 4 6 1019.0 1017.3 0.0
23/12:00am 12.7 9.1 0.5 43 5.3 SSE 9 9 5 5 1019.0 1017.3 0.0
 
Date/Time
CST
Temp
°C
App
Temp
°C
Dew
Point
°C
Rel
Hum
%
Delta-T
°C
Wind Press
QNH
hPa
Press
MSL
hPa
Rain since
9am
mm
Dir  Spd
km/h
Gust
km/h
Spd
kts
Gust
kts
22/11:30pm 12.3 9.4 -0.9 40 5.5 S 4 6 2 3 1019.5 1017.9 0.0
22/11:00pm 14.0 10.8 0.6 40 5.9 SSE 7 9 4 5 1019.4 1017.8 0.0
22/10:30pm 14.5 10.8 0.0 37 6.3 SE 9 11 5 6 1019.4 1017.8 0.0
22/10:00pm 13.7 10.8 1.4 43 5.5 ESE 6 6 3 3 1019.0 1017.3 0.0
22/09:30pm 14.1 10.9 -0.4 37 6.2 ESE 6 6 3 3 1019.1 1017.5 0.0
22/09:00pm 14.8 12.3 1.7 41 5.9 ESE 4 6 2 3 1019.0 1017.3 0.0
22/08:30pm 15.5 13.5 -0.3 34 6.9 CALM 0 0 0 0 1018.8 1017.1 0.0
22/08:00pm 15.8 13.8 0.0 34 6.9 CALM 0 0 0 0 1018.3 1016.6 0.0
22/07:30pm 17.1 14.8 0.3 32 7.5 ENE 2 6 1 3 1018.3 1016.6 0.0
22/07:00pm 17.1 14.2 -1.1 29 7.9 SSE 4 6 2 3 1017.9 1016.3 0.0
22/06:30pm 20.2 17.0 -0.4 25 9.3 S 6 6 3 3 1017.5 1015.8 0.0
22/06:00pm 20.9 17.7 -0.4 24 9.7 SE 6 7 3 4 1017.1 1015.4 0.0
22/05:30pm 23.2 20.5 0.3 22 10.7 ESE 4 9 2 5 1016.7 1015.0 0.0
22/05:00pm 24.0 20.7 0.4 21 11.2 SE 7 9 4 5 1016.5 1014.8 0.0
22/04:30pm 24.4 20.9 -1.4 18 11.8 ESE 7 13 4 7 1016.4 1014.7 0.0
22/04:00pm 24.4 21.0 -0.7 19 11.7 S 7 15 4 8 1016.6 1014.9 0.0
22/03:30pm 24.4 21.1 -1.4 18 11.8 ESE 6 13 3 7 1017.1 1015.4 0.0
22/03:00pm 24.6 20.8 -0.5 19 11.7 E 9 15 5 8 1017.2 1015.5 0.0
22/02:30pm 25.0 22.0 0.5 20 11.7 SW 6 9 3 5 1017.2 1015.5 0.0
22/02:00pm 24.0 20.8 -0.3 20 11.4 SSE 6 9 3 5 1017.6 1016.0 0.0
22/01:30pm 23.8 20.7 0.2 21 11.1 E 6 13 3 7 1018.2 1016.5 0.0
22/01:00pm 23.3 20.2 0.4 22 10.8 ESE 6 11 3 6 1018.7 1017.0 0.0
22/12:30pm 22.8 19.5 2.3 26 10.0 ESE 9 15 5 8 1019.1 1017.5 0.0
22/12:00pm 22.0 19.2 2.2 27 9.5 ENE 6 11 3 6 1019.5 1017.9 0.0
22/11:30am 22.0 18.7 2.7 28 9.4 E 9 15 5 8 1020.3 1018.6 0.0
22/11:00am 21.0 17.8 2.8 30 8.8 E 9 15 5 8 1020.9 1019.3 0.0
22/10:30am 19.8 16.1 2.6 32 8.2 E 11 17 6 9 1021.3 1019.7 0.0
22/10:00am 18.6 14.9 2.4 34 7.7 E 11 15 6 8 1021.4 1019.8 0.0
22/09:30am 17.0 13.0 3.0 39 6.6 ESE 13 19 7 10 1021.3 1019.7 0.0
22/09:00am 15.1 11.4 2.6 43 5.8 ESE 11 17 6 9 1021.3 1019.7 0.0
22/08:30am 12.5 9.8 2.9 52 4.4 ESE 6 9 3 5 1020.9 1019.3 0.0
22/08:00am 9.4 6.5 1.6 58 3.4 SSE 6 7 3 4 1020.8 1019.2 0.0
22/07:30am 7.5 4.9 0.9 63 2.7 S 4 6 2 3 1020.4 1018.7 0.0
22/07:00am 7.2 4.2 0.9 64 2.6 S 6 6 3 3 1020.4 1018.7 0.0
22/06:30am 7.8 4.7 1.4 64 2.7 S 7 9 4 5 1019.9 1018.3 0.0
22/06:00am 7.8 4.9 1.2 63 2.8 S 6 7 3 4 1019.8 1018.2 0.0
22/05:30am 8.0 4.9 1.2 62 2.8 S 7 9 4 5 1019.8 1018.2 0.0
22/05:00am 8.2 5.1 1.4 62 2.9 SSW 7 7 4 4 1019.7 1018.1 0.0
22/04:30am 8.9 6.0 1.6 60 3.1 SE 6 7 3 4 1019.5 1017.9 0.0
22/04:00am 9.5 6.5 1.7 58 3.4 SSE 7 9 4 5 1019.7 1018.1 0.0
22/03:30am 9.8 6.8 1.7 57 3.5 SSE 7 11 4 6 1019.7 1018.1 0.0
22/03:00am 10.5 7.1 1.9 55 3.7 SSE 9 11 5 6 1019.9 1018.3 0.0
22/02:30am 10.0 6.5 1.4 55 3.7 SSE 9 11 5 6 1020.1 1018.4 0.0
22/02:00am 10.9 7.4 1.4 52 4.1 SSE 9 11 5 6 1020.5 1018.8 0.0
22/01:30am 11.4 8.3 1.6 51 4.3 SSE 7 9 4 5 1020.4 1018.7 0.0
22/01:00am 12.1 8.7 2.0 50 4.5 SSE 9 11 5 6 1020.7 1019.1 0.0
22/12:30am 11.5 8.1 1.7 51 4.3 SE 9 11 5 6 1020.5 1018.8 0.0
22/12:00am 14.1 10.7 2.0 44 5.5 SSE 9 11 5 6 1020.7 1019.1 0.0
 
Date/Time
CST
Temp
°C
App
Temp
°C
Dew
Point
°C
Rel
Hum
%
Delta-T
°C
Wind Press
QNH
hPa
Press
MSL
hPa
Rain since
9am
mm
Dir  Spd
km/h
Gust
km/h
Spd
kts
Gust
kts
21/11:30pm 13.7 10.0 2.6 47 5.0 SE 11 15 6 8 1020.6 1018.9 0.0
21/11:00pm 14.8 11.4 2.0 42 5.8 SSE 9 13 5 7 1021.0 1019.4 0.0
21/10:30pm 16.6 11.7 2.2 38 6.7 SE 17 22 9 12 1020.8 1019.2 0.0
21/10:00pm 17.1 12.6 2.3 37 6.9 SE 15 20 8 11 1021.0 1019.4 0.0
21/09:30pm 17.9 12.7 2.6 36 7.2 ESE 19 24 10 13 1020.8 1019.2 0.0
21/09:00pm 18.8 13.7 3.0 35 7.5 ESE 19 28 10 15 1020.5 1018.8 0.0
21/08:30pm 19.0 14.5 4.0 37 7.3 ESE 17 22 9 12 1020.4 1018.7 0.0
21/08:00pm 18.2 14.6 5.1 42 6.5 ESE 13 17 7 9 1020.3 1018.6 0.0
21/07:30pm 17.2 13.7 5.5 46 5.8 ESE 13 15 7 8 1019.7 1018.1 0.0
21/07:00pm 17.5 14.6 4.5 42 6.4 ESE 9 11 5 6 1019.3 1017.7 0.0
21/06:30pm 18.6 15.7 4.8 40 6.8 E 9 11 5 6 1018.8 1017.1 0.0
21/06:00pm 21.0 17.2 4.1 33 8.4 ESE 13 17 7 9 1018.6 1016.9 0.0
21/05:30pm 22.5 18.7 4.1 30 9.2 ESE 13 17 7 9 1018.4 1016.7 0.0
21/05:00pm 23.8 19.6 3.7 27 10.1 ESE 15 22 8 12 1018.0 1016.4 0.0
21/04:30pm 24.4 19.8 3.7 26 10.4 E 17 24 9 13 1017.8 1016.2 0.0
21/04:00pm 24.6 21.7 4.4 27 10.3 SSE 9 17 5 9 1018.0 1016.4 0.0
21/03:30pm 24.4 20.6 3.7 26 10.4 ESE 13 22 7 12 1018.3 1016.6 0.0
21/03:00pm 24.5 21.5 4.3 27 10.3 SSE 9 20 5 11 1018.5 1016.8 0.0
21/02:30pm 24.4 21.9 4.7 28 10.1 SE 7 15 4 8 1018.8 1017.1 0.0
21/02:00pm 23.6 19.9 4.5 29 9.7 SSE 13 19 7 10 1019.2 1017.6 0.0
21/01:30pm 23.5 19.2 5.4 31 9.3 SE 17 28 9 15 1019.8 1018.2 0.0
21/01:00pm 23.1 20.1 6.0 33 8.9 ESE 11 20 6 11 1020.4 1018.7 0.0
21/12:30pm 22.3 19.2 5.7 34 8.6 E 11 26 6 14 1021.1 1019.5 0.0
21/12:00pm 21.3 18.6 5.6 36 8.0 SE 9 20 5 11 1021.5 1019.9 0.0
21/11:30am 20.6 17.2 5.8 38 7.6 ESE 13 20 7 11 1022.2 1020.5 0.0
21/11:00am 19.7 16.0 6.4 42 6.8 SE 15 22 8 12 1022.6 1021.0 0.0
21/10:30am 19.4 16.1 6.5 43 6.6 ESE 13 20 7 11 1023.0 1021.4 0.0
21/10:00am 18.8 14.3 6.3 44 6.4 SE 19 24 10 13 1023.0 1021.4 0.0
21/09:30am 18.0 13.5 5.9 45 6.1 SE 19 28 10 15 1023.2 1021.6 0.0
21/09:00am 16.4 11.8 5.4 48 5.4 SE 19 24 10 13 1023.1 1021.5 0.0
21/08:30am 14.1 10.7 5.7 57 4.1 SSE 13 19 7 10 1023.0 1021.4 0.0
21/08:00am 11.3 7.8 5.4 67 2.8 SSE 13 17 7 9 1022.8 1021.2 0.0
21/07:30am 9.8 7.4 5.4 74 2.1 S 7 11 4 6 1022.8 1021.2 0.0
21/07:00am 9.0 6.2 5.0 76 1.9 S 9 11 5 6 1022.6 1021.0 0.0
21/06:30am 9.4 7.0 5.4 76 1.9 S 7 9 4 5 1022.3 1020.7 0.0
21/06:00am 9.6 7.4 5.2 74 2.0 S 6 7 3 4 1022.1 1020.4 0.0
21/05:30am 10.2 8.1 5.8 74 2.1 SSE 6 7 3 4 1021.8 1020.2 0.0
21/05:00am 10.3 8.0 5.7 73 2.2 SE 7 7 4 4 1021.7 1020.1 0.0
21/04:30am 10.7 8.5 6.1 73 2.2 SE 7 9 4 5 1021.6 1020.0 0.0
21/04:00am 10.6 8.4 6.0 73 2.2 SE 7 9 4 5 1021.6 1020.0 0.0
21/03:30am 11.7 9.2 6.4 70 2.6 SSE 9 9 5 5 1021.6 1020.0 0.0
21/03:00am 12.0 9.8 6.3 68 2.8 SSE 7 9 4 5 1021.7 1020.1 0.0
21/02:30am 12.6 10.4 6.4 66 3.0 SSE 7 11 4 6 1021.8 1020.2 0.0
21/02:00am 12.7 9.8 6.3 65 3.1 SE 11 13 6 7 1022.0 1020.3 0.0
21/01:30am 12.3 9.3 6.1 66 3.0 SE 11 13 6 7 1022.1 1020.4 0.0
21/01:00am 13.1 10.1 6.2 63 3.4 SE 11 13 6 7 1022.3 1020.7 0.0
21/12:30am 14.7 12.2 6.5 58 4.1 SSE 9 13 5 7 1022.5 1020.9 0.0
21/12:00am 15.2 12.7 6.5 56 4.3 SSE 9 11 5 6 1022.6 1021.0 0.0
 
Date/Time
CST
Temp
°C
App
Temp
°C
Dew
Point
°C
Rel
Hum
%
Delta-T
°C
Wind Press
QNH
hPa
Press
MSL
hPa
Rain since
9am
mm
Dir  Spd
km/h
Gust
km/h
Spd
kts
Gust
kts
20/11:30pm 16.0 12.8 6.7 54 4.7 SE 13 17 7 9 1022.6 1021.0 0.0
20/11:00pm 16.5 13.3 6.9 53 4.9 SE 13 17 7 9 1022.5 1020.9 0.0
20/10:30pm 17.4 14.2 6.9 50 5.4 ESE 13 17 7 9 1022.5 1020.9 0.0
20/10:00pm 18.1 14.5 6.9 48 5.8 ESE 15 20 8 11 1022.4 1020.8 0.0
20/09:30pm 19.1 14.8 6.9 45 6.3 ESE 19 30 10 16 1022.4 1020.8 0.0
20/09:00pm 19.3 15.2 6.4 43 6.6 ESE 17 24 9 13 1022.1 1020.4 0.0
20/08:30pm 20.6 16.6 6.5 40 7.3 ESE 17 26 9 14 1021.5 1019.9 0.0
20/08:00pm 21.0 16.9 6.2 38 7.7 E 17 22 9 12 1021.1 1019.5 0.0
20/07:30pm 21.3 18.2 7.2 40 7.4 ESE 13 17 7 9 1020.8 1019.2 0.0
20/07:00pm 21.8 19.1 7.2 39 7.7 ESE 11 15 6 8 1020.3 1018.6 0.0
20/06:30pm 23.2 20.4 6.9 35 8.6 SE 11 15 6 8 1019.8 1018.2 0.0
20/06:00pm 23.3 19.8 7.0 35 8.7 ESE 15 19 8 10 1019.5 1017.9 0.0
20/05:30pm 25.0 22.5 6.7 31 9.8 ESE 9 13 5 7 1019.2 1017.6 0.0

Other formats

Comma delimited format used in spreadsheet applications
http://www.bom.gov.au/fwo/IDD60801/IDD60801.94328.axf

JavaScript Object Notation format (JSON) in row-major order
http://www.bom.gov.au/fwo/IDD60801/IDD60801.94328.json

Data quality

Most of these data are generated automatically and are frequently updated. Quality checks on data are not normally performed. It is possible for incorrect values to appear. Refer to information at About Latest Weather Observations and please check the disclaimer before using these data.